Time;durP1;ratioP1;P1;durP2;ratioP2;P2;SDS_P1;SDS_P2;PMS_P1;PMS_P2;Temp;Humidity;BMP_temperature;BMP_pressure;BME280_temperature;BME280_humidity;BME280_pressure;Samples;Min_cycle;Max_cycle;Signal;HPM_P1;HPM_P2
2023/10/07 00:00:51;;;;;;;13.82;5.35;;;;;;;;;;4942832;28;20125;-73
2023/10/07 00:03:19;;;;;;;10.93;5.22;;;;;;;;;;4943309;28;20200;-73
2023/10/07 00:05:50;;;;;;;12.05;4.93;;;;;;;;;;4944065;28;20038;-74
2023/10/07 00:08:19;;;;;;;12.13;5.10;;;;;;;;;;4946107;28;20019;-74
2023/10/07 00:10:47;;;;;;;12.15;5.05;;;;;;;;;;4942567;28;20106;-74
2023/10/07 00:13:14;;;;;;;10.48;4.88;;;;;;;;;;4943661;28;20344;-74
2023/10/07 00:15:44;;;;;;;10.98;4.80;;;;;;;;;;4942171;28;20678;-72
2023/10/07 00:18:13;;;;;;;10.38;4.78;;;;;;;;;;4939112;28;20035;-72
2023/10/07 00:21:03;;;;;;;11.45;5.00;;;;;;;;;;4938455;28;20094;-72
2023/10/07 00:23:29;;;;;;;11.60;5.40;;;;;;;;;;4941111;28;20059;-72
2023/10/07 00:25:55;;;;;;;9.20;4.65;;;;;;;;;;4938169;28;20336;-74
2023/10/07 00:31:02;;;;;;;10.48;4.63;;;;;;;;;;4939391;28;20055;-73
2023/10/07 00:33:30;;;;;;;12.20;5.38;;;;;;;;;;4941137;28;20607;-74
2023/10/07 00:36:01;;;;;;;12.38;4.97;;;;;;;;;;4935123;28;20524;-74
2023/10/07 00:38:37;;;;;;;10.68;4.85;;;;;;;;;;4942747;28;20026;-73
2023/10/07 00:41:04;;;;;;;10.52;5.20;;;;;;;;;;4941109;28;20038;-73
2023/10/07 00:43:31;;;;;;;10.68;5.03;;;;;;;;;;4944858;28;20145;-74
2023/10/07 00:46:10;;;;;;;10.75;4.72;;;;;;;;;;4939447;28;20419;-72
2023/10/07 00:48:46;;;;;;;11.38;4.90;;;;;;;;;;4941193;28;20386;-72
2023/10/07 00:51:16;;;;;;;9.90;4.72;;;;;;;;;;4935756;28;20066;-72
2023/10/07 00:53:46;;;;;;;10.95;4.70;;;;;;;;;;4943315;28;20067;-72
2023/10/07 00:56:14;;;;;;;11.27;4.93;;;;;;;;;;4957543;28;20039;-72
2023/10/07 00:58:41;;;;;;;12.75;4.70;;;;;;;;;;4950990;28;20246;-72
2023/10/07 01:01:10;;;;;;;10.02;4.30;;;;;;;;;;4938793;28;20059;-72
2023/10/07 01:03:55;;;;;;;10.70;4.50;;;;;;;;;;4945598;28;20046;-72
2023/10/07 01:06:31;;;;;;;11.30;4.85;;;;;;;;;;4943765;28;20041;-73
2023/10/07 01:09:30;;;;;;;9.38;4.75;;;;;;;;;;4941878;28;20042;-72
2023/10/07 01:11:57;;;;;;;11.27;4.70;;;;;;;;;;4940527;28;20478;-72
2023/10/07 01:14:26;;;;;;;11.45;4.80;;;;;;;;;;4946268;28;20130;-72
2023/10/07 01:16:53;;;;;;;10.68;4.72;;;;;;;;;;4936760;28;20037;-72
2023/10/07 01:19:19;;;;;;;9.93;4.20;;;;;;;;;;4937899;28;20083;-72
2023/10/07 01:27:18;;;;;;;9.63;4.57;;;;;;;;;;4943448;28;20500;-73
2023/10/07 01:29:44;;;;;;;9.90;4.10;;;;;;;;;;4943256;28;20597;-72
2023/10/07 01:32:15;;;;;;;11.40;4.78;;;;;;;;;;4937733;28;20142;-72
2023/10/07 01:34:47;;;;;;;10.75;4.32;;;;;;;;;;4942204;28;20023;-72
2023/10/07 01:37:21;;;;;;;10.73;4.43;;;;;;;;;;4942718;28;20031;-72
2023/10/07 01:39:49;;;;;;;10.02;4.53;;;;;;;;;;4942679;28;20030;-72
2023/10/07 01:42:48;;;;;;;12.00;4.50;;;;;;;;;;4948985;28;20038;-72
2023/10/07 01:45:19;;;;;;;11.60;4.85;;;;;;;;;;4938634;28;20034;-72
2023/10/07 01:47:47;;;;;;;10.43;4.88;;;;;;;;;;4940447;28;20042;-72
2023/10/07 01:50:14;;;;;;;11.13;4.10;;;;;;;;;;4942278;28;20027;-72
2023/10/07 01:52:40;;;;;;;11.38;4.90;;;;;;;;;;4938373;28;20034;-72
2023/10/07 01:55:11;;;;;;;11.20;4.88;;;;;;;;;;4939106;28;20907;-72
2023/10/07 01:57:40;;;;;;;10.23;4.93;;;;;;;;;;4939712;28;20112;-72
2023/10/07 02:00:07;;;;;;;9.30;4.68;;;;;;;;;;4943418;28;20089;-72
2023/10/07 02:02:42;;;;;;;10.43;4.65;;;;;;;;;;4945657;28;20043;-74
2023/10/07 02:05:12;;;;;;;10.88;5.15;;;;;;;;;;4940656;28;20360;-72
2023/10/07 02:07:39;;;;;;;9.65;4.68;;;;;;;;;;4946357;28;20653;-71
2023/10/07 02:10:05;;;;;;;11.35;4.88;;;;;;;;;;4932735;28;20031;-72
2023/10/07 02:12:33;;;;;;;10.38;4.78;;;;;;;;;;4940653;28;20031;-74
2023/10/07 02:15:08;;;;;;;11.57;5.20;;;;;;;;;;4939148;28;20585;-73
2023/10/07 02:17:34;;;;;;;10.77;4.57;;;;;;;;;;4939162;28;20067;-73
2023/10/07 02:20:21;;;;;;;12.35;5.00;;;;;;;;;;4938277;28;20041;-73
2023/10/07 02:22:47;;;;;;;11.35;4.72;;;;;;;;;;4940658;28;20570;-74
2023/10/07 02:25:20;;;;;;;11.02;4.50;;;;;;;;;;4938586;28;20109;-73
2023/10/07 02:27:48;;;;;;;10.18;4.53;;;;;;;;;;4943932;28;20782;-73
2023/10/07 02:30:20;;;;;;;11.15;5.30;;;;;;;;;;4942491;28;20092;-73
2023/10/07 02:32:48;;;;;;;10.75;4.70;;;;;;;;;;4940383;28;20118;-73
2023/10/07 02:35:19;;;;;;;10.07;4.50;;;;;;;;;;4943377;28;20078;-72
2023/10/07 02:37:49;;;;;;;9.93;4.18;;;;;;;;;;4944840;28;20077;-71
2023/10/07 02:40:35;;;;;;;11.75;4.50;;;;;;;;;;4943024;28;20035;-71
2023/10/07 02:43:07;;;;;;;11.55;4.97;;;;;;;;;;4941260;28;20022;-71
2023/10/07 02:45:39;;;;;;;10.65;4.65;;;;;;;;;;4960489;28;20030;-73
2023/10/07 02:48:10;;;;;;;10.80;4.63;;;;;;;;;;4943673;28;20038;-72
2023/10/07 02:50:40;;;;;;;10.15;4.32;;;;;;;;;;4942601;28;20343;-72
2023/10/07 02:53:14;;;;;;;11.20;4.85;;;;;;;;;;4939178;28;20057;-72
2023/10/07 02:55:58;;;;;;;11.80;4.88;;;;;;;;;;4946757;28;20026;-72
2023/10/07 02:58:32;;;;;;;11.27;4.95;;;;;;;;;;4942489;28;20078;-72
2023/10/07 03:01:10;;;;;;;11.32;4.97;;;;;;;;;;4938787;28;20594;-72
2023/10/07 03:03:38;;;;;;;12.35;5.43;;;;;;;;;;4940892;28;20122;-72
2023/10/07 03:06:07;;;;;;;10.20;4.78;;;;;;;;;;4940818;28;20018;-72
2023/10/07 03:11:12;;;;;;;11.40;5.13;;;;;;;;;;4941698;28;20342;-72
2023/10/07 03:13:45;;;;;;;11.63;5.20;;;;;;;;;;4940257;28;20117;-72
2023/10/07 03:19:06;;;;;;;10.90;4.55;;;;;;;;;;4943058;28;20156;-72
2023/10/07 03:24:10;;;;;;;10.23;5.00;;;;;;;;;;4939873;28;20034;-72
2023/10/07 03:26:38;;;;;;;11.38;4.93;;;;;;;;;;4940990;28;20142;-73
2023/10/07 03:29:04;;;;;;;11.60;5.07;;;;;;;;;;4938409;28;20773;-72
2023/10/07 03:34:12;;;;;;;12.57;5.20;;;;;;;;;;4944999;28;20726;-72
2023/10/07 03:36:41;;;;;;;11.00;4.97;;;;;;;;;;4940169;28;20034;-72
2023/10/07 03:41:59;;;;;;;11.25;4.97;;;;;;;;;;4943953;28;20149;-72
2023/10/07 03:44:26;;;;;;;12.05;5.05;;;;;;;;;;4940440;28;20139;-73
2023/10/07 03:46:57;;;;;;;10.70;4.55;;;;;;;;;;4940824;28;20031;-73
2023/10/07 03:49:23;;;;;;;11.57;5.00;;;;;;;;;;4943719;28;20027;-73
2023/10/07 03:52:12;;;;;;;12.82;4.70;;;;;;;;;;4938137;28;20113;-72
2023/10/07 03:54:42;;;;;;;11.82;4.55;;;;;;;;;;4943511;28;20540;-73
2023/10/07 03:57:11;;;;;;;10.32;4.40;;;;;;;;;;4941632;28;20026;-73
2023/10/07 03:59:38;;;;;;;9.43;4.20;;;;;;;;;;4943824;28;20560;-71
2023/10/07 04:04:58;;;;;;;11.40;4.38;;;;;;;;;;4941260;28;20042;-73
2023/10/07 04:07:25;;;;;;;13.23;4.85;;;;;;;;;;4939083;28;20319;-73
2023/10/07 04:09:51;;;;;;;10.57;4.65;;;;;;;;;;4938207;28;20540;-73
2023/10/07 04:12:17;;;;;;;9.60;4.45;;;;;;;;;;4942068;28;20490;-73
2023/10/07 04:14:43;;;;;;;10.75;4.85;;;;;;;;;;4942808;28;20074;-72
2023/10/07 04:17:13;;;;;;;12.50;4.93;;;;;;;;;;4938632;28;20418;-72
2023/10/07 04:19:42;;;;;;;15.10;5.15;;;;;;;;;;4941295;28;20150;-72
2023/10/07 04:22:11;;;;;;;15.27;5.38;;;;;;;;;;4935243;28;20495;-72
2023/10/07 04:24:44;;;;;;;10.00;4.15;;;;;;;;;;4941407;28;20497;-72
2023/10/07 04:27:18;;;;;;;11.45;4.30;;;;;;;;;;4934695;28;20426;-72
2023/10/07 04:29:45;;;;;;;13.63;5.30;;;;;;;;;;4938649;28;20449;-72
2023/10/07 04:32:20;;;;;;;15.50;5.28;;;;;;;;;;4943624;28;20058;-71
2023/10/07 04:35:06;;;;;;;13.40;4.95;;;;;;;;;;4941983;28;20085;-72
2023/10/07 04:37:51;;;;;;;15.48;5.35;;;;;;;;;;4941736;28;20120;-72
2023/10/07 04:45:48;;;;;;;25.80;6.60;;;;;;;;;;4941794;28;20271;-72
2023/10/07 04:48:23;;;;;;;17.20;5.40;;;;;;;;;;4938997;28;20352;-72
2023/10/07 04:51:03;;;;;;;17.27;6.23;;;;;;;;;;4936806;28;20027;-72
2023/10/07 04:53:37;;;;;;;24.35;6.78;;;;;;;;;;4941682;28;20101;-73
2023/10/07 04:56:04;;;;;;;28.27;7.07;;;;;;;;;;4936362;28;20081;-72
2023/10/07 04:58:30;;;;;;;26.05;7.13;;;;;;;;;;4942941;28;20030;-74
2023/10/07 05:01:04;;;;;;;29.90;7.28;;;;;;;;;;4933960;28;20229;-73
2023/10/07 05:03:31;;;;;;;25.75;7.32;;;;;;;;;;4940457;28;20667;-73
2023/10/07 05:05:58;;;;;;;22.55;6.57;;;;;;;;;;4937847;28;20481;-73
2023/10/07 05:08:27;;;;;;;19.55;6.22;;;;;;;;;;4944074;28;20057;-73
2023/10/07 05:10:54;;;;;;;20.05;6.03;;;;;;;;;;4936942;28;20037;-73
2023/10/07 05:13:21;;;;;;;11.95;4.93;;;;;;;;;;4941402;28;20662;-72
2023/10/07 05:15:47;;;;;;;13.48;5.05;;;;;;;;;;4940132;28;20110;-73
2023/10/07 05:18:14;;;;;;;18.98;5.22;;;;;;;;;;4940654;28;21140;-73
2023/10/07 05:20:41;;;;;;;14.82;5.65;;;;;;;;;;4944611;28;20473;-73
2023/10/07 05:23:09;;;;;;;11.38;4.63;;;;;;;;;;4936948;28;20023;-73
2023/10/07 05:25:43;;;;;;;10.43;4.57;;;;;;;;;;4953303;28;20028;-74
2023/10/07 05:28:17;;;;;;;10.07;4.35;;;;;;;;;;4948314;28;20606;-73
2023/10/07 05:30:50;;;;;;;9.75;4.13;;;;;;;;;;4939309;28;20089;-73
2023/10/07 05:33:26;;;;;;;11.15;4.25;;;;;;;;;;4940652;28;20038;-73
2023/10/07 05:35:54;;;;;;;;;;;;;;;;;;4939605;28;20034;-72
2023/10/07 05:38:20;;;;;;;12.32;4.80;;;;;;;;;;4940125;28;19919;-72
2023/10/07 05:40:49;;;;;;;10.60;4.38;;;;;;;;;;4942045;28;20117;-72
2023/10/07 05:43:16;;;;;;;11.00;4.70;;;;;;;;;;4943337;28;20045;-72
2023/10/07 05:45:42;;;;;;;12.18;4.60;;;;;;;;;;4940587;28;20046;-72
2023/10/07 05:48:10;;;;;;;11.65;4.50;;;;;;;;;;4939442;28;22137;-72
2023/10/07 05:50:36;;;;;;;10.75;4.40;;;;;;;;;;4941528;28;20386;-72
2023/10/07 05:53:04;;;;;;;10.30;4.65;;;;;;;;;;4941382;28;20328;-72
2023/10/07 05:55:31;;;;;;;10.90;4.53;;;;;;;;;;4943323;28;20038;-72
2023/10/07 05:57:58;;;;;;;11.77;5.15;;;;;;;;;;4936542;28;20026;-72
2023/10/07 06:00:25;;;;;;;13.18;4.78;;;;;;;;;;4944433;28;20031;-72
2023/10/07 06:02:55;;;;;;;10.38;4.63;;;;;;;;;;4941861;28;20311;-72
2023/10/07 06:05:27;;;;;;;11.18;4.55;;;;;;;;;;4945670;28;20564;-72
2023/10/07 06:07:53;;;;;;;15.30;5.05;;;;;;;;;;4937961;28;20661;-72
2023/10/07 06:10:22;;;;;;;10.63;4.50;;;;;;;;;;4945742;28;20381;-72
2023/10/07 06:12:49;;;;;;;11.25;4.72;;;;;;;;;;4943921;28;20057;-72
2023/10/07 06:15:16;;;;;;;10.82;4.22;;;;;;;;;;4950615;28;20034;-72
2023/10/07 06:17:42;;;;;;;15.07;5.18;;;;;;;;;;4944656;28;20035;-72
2023/10/07 06:20:14;;;;;;;12.35;4.82;;;;;;;;;;4941763;28;20119;-72
2023/10/07 06:22:48;;;;;;;12.77;4.95;;;;;;;;;;4940702;28;20361;-72
2023/10/07 06:25:17;;;;;;;13.23;5.07;;;;;;;;;;4942471;28;20454;-72
2023/10/07 06:27:46;;;;;;;11.27;5.13;;;;;;;;;;4941725;28;21165;-72
2023/10/07 06:30:20;;;;;;;13.85;4.78;;;;;;;;;;4940007;28;20456;-72
2023/10/07 06:32:54;;;;;;;11.48;4.85;;;;;;;;;;4946714;28;20143;-72
2023/10/07 06:35:23;;;;;;;13.25;4.82;;;;;;;;;;4942261;28;20054;-72
2023/10/07 06:37:51;;;;;;;11.90;4.60;;;;;;;;;;4940016;28;20587;-72
2023/10/07 06:42:49;;;;;;;12.85;4.82;;;;;;;;;;4939448;28;20487;-72
2023/10/07 06:45:17;;;;;;;10.48;4.57;;;;;;;;;;4942687;28;20114;-73
2023/10/07 06:47:46;;;;;;;11.10;4.43;;;;;;;;;;4947721;28;20290;-73
2023/10/07 06:50:27;;;;;;;12.90;4.97;;;;;;;;;;4941607;28;20099;-74
2023/10/07 06:52:55;;;;;;;12.15;5.20;;;;;;;;;;4942438;28;20023;-72
2023/10/07 06:55:24;;;;;;;13.05;5.25;;;;;;;;;;4940775;28;20031;-73
2023/10/07 06:57:56;;;;;;;11.27;5.03;;;;;;;;;;4938811;28;20125;-73
2023/10/07 07:00:37;;;;;;;13.43;5.22;;;;;;;;;;4940865;28;20461;-72
2023/10/07 07:03:09;;;;;;;11.27;4.82;;;;;;;;;;4942047;28;20105;-73
2023/10/07 07:05:35;;;;;;;11.20;5.38;;;;;;;;;;4944879;28;20046;-73
2023/10/07 07:08:05;;;;;;;13.05;5.35;;;;;;;;;;4940684;28;20271;-73
2023/10/07 07:10:31;;;;;;;10.63;4.85;;;;;;;;;;4943230;28;20228;-74
2023/10/07 07:13:15;;;;;;;11.15;4.50;;;;;;;;;;4943345;28;20432;-73
2023/10/07 07:15:41;;;;;;;11.77;4.95;;;;;;;;;;4945236;28;20033;-74
2023/10/07 07:23:39;;;;;;;12.00;5.82;;;;;;;;;;4919806;28;20039;-73
2023/10/07 07:26:10;;;;;;;15.52;7.38;;;;;;;;;;4940973;28;20058;-73
2023/10/07 07:28:42;;;;;;;15.77;7.63;;;;;;;;;;4945237;28;20497;-73
2023/10/07 07:31:18;;;;;;;27.63;12.57;;;;;;;;;;4944010;28;20061;-73
2023/10/07 07:33:48;;;;;;;18.95;8.82;;;;;;;;;;4941238;28;20394;-73
2023/10/07 07:36:19;;;;;;;17.55;8.25;;;;;;;;;;4939726;28;20026;-73
2023/10/07 07:38:47;;;;;;;18.52;7.28;;;;;;;;;;4944929;28;20033;-73
2023/10/07 07:43:58;;;;;;;11.73;5.50;;;;;;;;;;4938654;28;20035;-72
2023/10/07 07:46:46;;;;;;;12.18;5.53;;;;;;;;;;4943658;28;20457;-73
2023/10/07 07:49:12;;;;;;;13.27;6.00;;;;;;;;;;4937638;28;20019;-73
2023/10/07 07:51:41;;;;;;;10.63;4.93;;;;;;;;;;4937350;28;20830;-73
2023/10/07 07:54:08;;;;;;;13.00;4.43;;;;;;;;;;4937332;28;20088;-74
2023/10/07 07:56:35;;;;;;;13.15;5.40;;;;;;;;;;4938274;28;20035;-73
2023/10/07 07:59:13;;;;;;;10.93;4.63;;;;;;;;;;4940061;28;20110;-73
2023/10/07 08:01:39;;;;;;;11.60;4.85;;;;;;;;;;4942751;28;21906;-73
2023/10/07 08:04:10;;;;;;;11.77;4.95;;;;;;;;;;4938464;28;20058;-73
2023/10/07 08:06:36;;;;;;;11.10;4.57;;;;;;;;;;4939288;28;20509;-73
2023/10/07 08:09:03;;;;;;;11.27;5.35;;;;;;;;;;4938373;28;20528;-74
2023/10/07 08:11:35;;;;;;;11.65;5.53;;;;;;;;;;4940208;28;20881;-73
2023/10/07 08:14:22;;;;;;;15.10;6.15;;;;;;;;;;4934682;28;20037;-73
2023/10/07 08:16:51;;;;;;;11.23;5.45;;;;;;;;;;4939197;28;20034;-73
2023/10/07 08:19:23;;;;;;;12.32;6.07;;;;;;;;;;4938410;28;20729;-74
2023/10/07 08:21:53;;;;;;;12.20;5.20;;;;;;;;;;4936945;28;20600;-73
2023/10/07 08:24:20;;;;;;;12.63;6.45;;;;;;;;;;4935354;28;20034;-73
2023/10/07 08:26:59;;;;;;;14.15;7.57;;;;;;;;;;4935983;28;20042;-74
2023/10/07 08:29:34;;;;;;;20.17;10.85;;;;;;;;;;4937968;28;20031;-73
2023/10/07 08:32:01;;;;;;;18.70;10.18;;;;;;;;;;4938566;28;20031;-73
2023/10/07 08:34:32;;;;;;;21.10;11.77;;;;;;;;;;4938432;28;20780;-73
2023/10/07 08:37:01;;;;;;;21.00;10.48;;;;;;;;;;4936544;28;20031;-73
2023/10/07 08:39:28;;;;;;;20.00;11.43;;;;;;;;;;4934567;28;20207;-73
2023/10/07 08:42:00;;;;;;;24.52;12.48;;;;;;;;;;4938534;28;20452;-73
2023/10/07 08:44:31;;;;;;;19.92;10.18;;;;;;;;;;4942675;28;20034;-73
2023/10/07 08:47:04;;;;;;;15.77;8.18;;;;;;;;;;4934772;28;20564;-73
2023/10/07 08:49:33;;;;;;;14.07;6.78;;;;;;;;;;4941579;28;20202;-74
2023/10/07 08:51:59;;;;;;;15.38;7.68;;;;;;;;;;4935111;28;20397;-74
2023/10/07 08:54:37;;;;;;;18.95;6.60;;;;;;;;;;4939717;28;20589;-73
2023/10/07 08:57:37;;;;;;;14.32;6.47;;;;;;;;;;4934800;28;20031;-73
2023/10/07 08:59:59;;;;;;;16.55;6.80;;;;;;;;;;4933713;28;20119;-74
2023/10/07 09:02:32;;;;;;;16.30;8.07;;;;;;;;;;4937301;28;20061;-74
2023/10/07 09:04:59;;;;;;;15.60;5.82;;;;;;;;;;4936579;28;20314;-76
2023/10/07 09:07:31;;;;;;;11.95;4.88;;;;;;;;;;4936398;28;20033;-73
2023/10/07 09:10:06;;;;;;;11.30;5.10;;;;;;;;;;4931625;28;20051;-73
2023/10/07 09:12:39;;;;;;;14.60;5.10;;;;;;;;;;4936354;28;20066;-74
2023/10/07 09:15:12;;;;;;;12.10;4.80;;;;;;;;;;4933096;28;20163;-74
2023/10/07 09:17:41;;;;;;;12.93;4.85;;;;;;;;;;4940109;28;20136;-74
2023/10/07 09:20:13;;;;;;;12.68;5.15;;;;;;;;;;4936394;28;20541;-73
2023/10/07 09:22:45;;;;;;;11.77;4.80;;;;;;;;;;4938087;28;20033;-73
2023/10/07 09:25:17;;;;;;;11.80;5.00;;;;;;;;;;4932462;28;20027;-74
2023/10/07 09:27:58;;;;;;;12.02;4.75;;;;;;;;;;4952635;28;20073;-73
2023/10/07 09:33:13;;;;;;;12.70;4.75;;;;;;;;;;4934987;28;23885;-74
2023/10/07 09:35:43;;;;;;;10.35;4.00;;;;;;;;;;4936380;28;20162;-75
2023/10/07 09:38:12;;;;;;;10.85;5.05;;;;;;;;;;4935575;28;20609;-74
2023/10/07 09:43:20;;;;;;;12.02;4.90;;;;;;;;;;4939869;28;20037;-74
2023/10/07 09:45:52;;;;;;;9.45;4.10;;;;;;;;;;4934643;28;20381;-74
2023/10/07 09:48:23;;;;;;;10.90;5.00;;;;;;;;;;4935836;28;20533;-74
2023/10/07 09:50:55;;;;;;;11.50;4.30;;;;;;;;;;4936845;28;20082;-74
2023/10/07 09:53:37;;;;;;;9.93;4.75;;;;;;;;;;4936657;28;20699;-74
2023/10/07 09:56:11;;;;;;;10.82;4.57;;;;;;;;;;4931590;28;20041;-73
2023/10/07 09:59:00;;;;;;;11.93;4.10;;;;;;;;;;4934800;28;20031;-73
2023/10/07 10:01:34;;;;;;;12.15;4.68;;;;;;;;;;4934969;28;20027;-73
2023/10/07 10:04:14;;;;;;;8.70;4.13;;;;;;;;;;4934895;28;20707;-73
2023/10/07 10:06:47;;;;;;;10.52;4.25;;;;;;;;;;4939614;28;20815;-73
2023/10/07 10:09:14;;;;;;;9.70;3.90;;;;;;;;;;4930428;28;20470;-73
2023/10/07 10:16:45;;;;;;;11.68;4.80;;;;;;;;;;4936003;28;20039;-73
2023/10/07 10:19:17;;;;;;;10.05;4.50;;;;;;;;;;4934695;28;20035;-73
2023/10/07 10:21:44;;;;;;;8.30;3.17;;;;;;;;;;4933866;28;20115;-73
2023/10/07 10:24:18;;;;;;;11.63;3.50;;;;;;;;;;4934693;28;20613;-73
2023/10/07 10:26:44;;;;;;;8.77;3.72;;;;;;;;;;4934279;28;20695;-74
2023/10/07 10:29:17;;;;;;;9.18;3.70;;;;;;;;;;4945156;28;20035;-73
2023/10/07 10:31:50;;;;;;;8.07;3.25;;;;;;;;;;4931721;28;20027;-73
2023/10/07 10:34:17;;;;;;;9.32;3.25;;;;;;;;;;4932501;28;20219;-73
2023/10/07 10:36:49;;;;;;;10.57;3.40;;;;;;;;;;4938712;28;20035;-74
2023/10/07 10:39:25;;;;;;;10.25;3.83;;;;;;;;;;4931441;28;20069;-73
2023/10/07 10:41:52;;;;;;;9.27;3.53;;;;;;;;;;4933891;28;20069;-73
2023/10/07 10:44:20;;;;;;;9.13;3.95;;;;;;;;;;4939099;28;20222;-74
2023/10/07 10:46:51;;;;;;;12.32;4.30;;;;;;;;;;4950801;28;20394;-73
2023/10/07 10:49:18;;;;;;;11.88;4.90;;;;;;;;;;4939219;28;20035;-73
2023/10/07 10:51:46;;;;;;;10.32;5.28;;;;;;;;;;4940196;28;20501;-73
2023/10/07 10:54:18;;;;;;;10.73;4.18;;;;;;;;;;4932120;28;20049;-73
2023/10/07 10:56:47;;;;;;;10.55;3.85;;;;;;;;;;4940831;28;20027;-73
2023/10/07 10:59:14;;;;;;;9.27;3.95;;;;;;;;;;4939224;28;20457;-74
2023/10/07 11:01:44;;;;;;;12.70;5.32;;;;;;;;;;4939906;28;20696;-73
2023/10/07 11:04:13;;;;;;;11.00;4.65;;;;;;;;;;4933725;28;20516;-73
2023/10/07 11:06:42;;;;;;;9.48;4.55;;;;;;;;;;4942469;28;20331;-74
2023/10/07 11:09:09;;;;;;;8.38;3.25;;;;;;;;;;4933633;28;20031;-75
2023/10/07 11:11:37;;;;;;;10.10;3.80;;;;;;;;;;4939267;28;20045;-73
2023/10/07 11:14:09;;;;;;;8.68;3.92;;;;;;;;;;4939062;28;20194;-73
2023/10/07 11:16:48;;;;;;;11.38;3.63;;;;;;;;;;4941804;28;20039;-73
2023/10/07 11:19:15;;;;;;;8.15;3.25;;;;;;;;;;4939992;28;20361;-73
2023/10/07 11:21:44;;;;;;;9.85;4.00;;;;;;;;;;4941449;28;20337;-73
2023/10/07 11:24:14;;;;;;;8.65;3.50;;;;;;;;;;4939429;28;20118;-73
2023/10/07 11:26:42;;;;;;;11.05;3.83;;;;;;;;;;4938932;28;20026;-73
2023/10/07 11:29:13;;;;;;;8.85;3.22;;;;;;;;;;4934805;28;20041;-73
2023/10/07 11:31:41;;;;;;;7.90;3.00;;;;;;;;;;4941467;28;20109;-74
2023/10/07 11:34:08;;;;;;;10.52;4.15;;;;;;;;;;4938058;28;20384;-73
2023/10/07 11:36:45;;;;;;;10.65;4.03;;;;;;;;;;4938720;28;20023;-73
2023/10/07 11:39:13;;;;;;;9.93;3.72;;;;;;;;;;4939948;28;20652;-73
2023/10/07 11:41:41;;;;;;;10.10;4.10;;;;;;;;;;4939099;28;20113;-73
2023/10/07 11:44:09;;;;;;;10.10;4.30;;;;;;;;;;4938167;28;20421;-74
2023/10/07 11:46:36;;;;;;;10.38;4.22;;;;;;;;;;4941824;28;20052;-73
2023/10/07 11:49:02;;;;;;;9.52;3.85;;;;;;;;;;4936132;28;20570;-73
2023/10/07 11:51:28;;;;;;;9.70;3.63;;;;;;;;;;4938340;28;20285;-73
2023/10/07 11:53:55;;;;;;;10.60;4.18;;;;;;;;;;4938915;28;20781;-73
2023/10/07 11:56:22;;;;;;;9.15;3.53;;;;;;;;;;4938901;28;21093;-74
2023/10/07 11:58:49;;;;;;;11.77;3.80;;;;;;;;;;4940682;28;20118;-73
2023/10/07 12:01:20;;;;;;;10.35;3.70;;;;;;;;;;4939173;28;20161;-73
2023/10/07 12:03:46;;;;;;;10.70;3.60;;;;;;;;;;4939753;28;20039;-73
2023/10/07 12:06:13;;;;;;;9.82;3.70;;;;;;;;;;4939449;28;20085;-73
2023/10/07 12:08:39;;;;;;;9.85;3.55;;;;;;;;;;4941501;28;20031;-75
2023/10/07 12:11:06;;;;;;;8.77;3.42;;;;;;;;;;4939118;28;20397;-73
2023/10/07 12:13:33;;;;;;;8.60;3.45;;;;;;;;;;4937449;28;20050;-74
2023/10/07 12:16:00;;;;;;;12.50;3.72;;;;;;;;;;4937328;28;20030;-73
2023/10/07 12:18:26;;;;;;;8.95;3.55;;;;;;;;;;4936436;28;20292;-74
2023/10/07 12:20:55;;;;;;;9.02;3.10;;;;;;;;;;4936739;28;20657;-74
2023/10/07 12:23:22;;;;;;;10.23;3.55;;;;;;;;;;4940107;28;20686;-74
2023/10/07 12:25:49;;;;;;;7.85;3.28;;;;;;;;;;4944576;28;20584;-75
2023/10/07 12:28:16;;;;;;;7.55;3.25;;;;;;;;;;4938739;28;20126;-74
2023/10/07 12:30:44;;;;;;;9.85;3.33;;;;;;;;;;4937943;28;20720;-74
2023/10/07 12:33:10;;;;;;;7.63;2.92;;;;;;;;;;4933807;28;20352;-74
2023/10/07 12:35:37;;;;;;;9.80;3.80;;;;;;;;;;4943400;28;20675;-74
2023/10/07 12:38:03;;;;;;;8.80;3.40;;;;;;;;;;4939454;28;20432;-74
2023/10/07 12:40:29;;;;;;;8.88;3.53;;;;;;;;;;4939025;28;20100;-74
2023/10/07 12:42:56;;;;;;;9.70;3.40;;;;;;;;;;4938227;28;20589;-75
2023/10/07 12:45:23;;;;;;;9.13;3.20;;;;;;;;;;4942900;28;20349;-74
2023/10/07 12:47:54;;;;;;;7.95;3.47;;;;;;;;;;4935609;28;20523;-74
2023/10/07 12:50:23;;;;;;;9.95;3.13;;;;;;;;;;4937177;28;20560;-74
2023/10/07 12:53:01;;;;;;;9.45;3.00;;;;;;;;;;4932037;28;20125;-74
2023/10/07 12:55:36;;;;;;;8.15;3.30;;;;;;;;;;4941141;28;20041;-73
2023/10/07 12:58:09;;;;;;;8.50;3.42;;;;;;;;;;4936503;28;20073;-73
2023/10/07 13:00:36;;;;;;;8.63;3.17;;;;;;;;;;4935145;28;20835;-73
2023/10/07 13:03:05;;;;;;;10.40;3.58;;;;;;;;;;4934695;28;20039;-73
2023/10/07 13:05:38;;;;;;;9.40;3.40;;;;;;;;;;4933890;28;20596;-74
2023/10/07 13:08:12;;;;;;;8.80;3.45;;;;;;;;;;4931360;28;20069;-73
2023/10/07 13:10:38;;;;;;;;;;;;;;;;;;4936055;28;20125;-74
2023/10/07 13:13:05;;;;;;;7.00;2.65;;;;;;;;;;4936978;28;19913;-74
2023/10/07 13:15:33;;;;;;;8.88;3.08;;;;;;;;;;4937230;28;20141;-74
2023/10/07 13:18:01;;;;;;;8.88;3.25;;;;;;;;;;4936768;28;20279;-73
2023/10/07 13:20:27;;;;;;;9.48;3.30;;;;;;;;;;4940003;28;20429;-73
2023/10/07 13:22:55;;;;;;;10.18;3.25;;;;;;;;;;4936171;28;20058;-73
2023/10/07 13:25:21;;;;;;;7.93;3.00;;;;;;;;;;4939322;28;20034;-73
2023/10/07 13:27:48;;;;;;;10.70;3.45;;;;;;;;;;4940236;28;20049;-73
2023/10/07 13:30:16;;;;;;;10.40;3.65;;;;;;;;;;4933783;28;20134;-73
2023/10/07 13:32:46;;;;;;;9.57;3.50;;;;;;;;;;4935372;28;20055;-73
2023/10/07 13:35:15;;;;;;;9.02;3.17;;;;;;;;;;4937907;28;20106;-73
2023/10/07 13:37:44;;;;;;;9.23;3.65;;;;;;;;;;4938777;28;20505;-73
2023/10/07 13:40:21;;;;;;;9.77;3.30;;;;;;;;;;4930470;28;20034;-74
2023/10/07 13:42:50;;;;;;;8.68;3.80;;;;;;;;;;4935814;28;20032;-73
2023/10/07 13:45:17;;;;;;;10.55;3.60;;;;;;;;;;4936716;28;20328;-74
2023/10/07 13:47:46;;;;;;;7.88;3.33;;;;;;;;;;4934514;28;20595;-73
2023/10/07 13:50:17;;;;;;;8.13;3.22;;;;;;;;;;4938226;28;20050;-74
2023/10/07 13:52:50;;;;;;;8.15;3.10;;;;;;;;;;4939586;28;20514;-74
2023/10/07 13:55:32;;;;;;;8.30;3.20;;;;;;;;;;4939786;28;20069;-74
2023/10/07 13:57:59;;;;;;;9.25;3.03;;;;;;;;;;4932496;28;20497;-74
2023/10/07 14:03:50;;;;;;;14.32;3.53;;;;;;;;;;4930137;28;20053;-74
2023/10/07 14:05:51;;;;;;;10.05;3.00;;;;;;;;;;4924732;28;20113;-73
2023/10/07 14:08:19;;;;;;;10.80;3.10;;;;;;;;;;4939444;28;20580;-75
2023/10/07 14:10:48;;;;;;;9.07;3.30;;;;;;;;;;4934568;28;20050;-75
2023/10/07 14:13:15;;;;;;;7.72;2.95;;;;;;;;;;4936810;28;20374;-74
2023/10/07 14:15:41;;;;;;;15.25;3.60;;;;;;;;;;4938201;28;20035;-74
2023/10/07 14:18:07;;;;;;;9.13;3.40;;;;;;;;;;4935315;28;20308;-74
2023/10/07 14:20:33;;;;;;;8.57;3.10;;;;;;;;;;4937800;28;20206;-75
2023/10/07 14:22:59;;;;;;;7.60;3.08;;;;;;;;;;4938175;28;20153;-73
2023/10/07 14:25:26;;;;;;;8.75;3.13;;;;;;;;;;4938314;28;20069;-75
2023/10/07 14:27:56;;;;;;;7.55;3.00;;;;;;;;;;4937058;28;20023;-73
2023/10/07 14:30:22;;;;;;;10.27;3.70;;;;;;;;;;4939987;28;20043;-73
2023/10/07 14:32:50;;;;;;;9.02;3.25;;;;;;;;;;4941228;28;20061;-74
2023/10/07 14:35:16;;;;;;;10.23;3.60;;;;;;;;;;4956313;28;20034;-73
2023/10/07 14:37:45;;;;;;;8.27;3.60;;;;;;;;;;4942649;28;20031;-75
2023/10/07 14:40:12;;;;;;;8.77;3.20;;;;;;;;;;4940003;28;20034;-75
2023/10/07 14:42:40;;;;;;;8.20;3.17;;;;;;;;;;4941413;28;20090;-74
2023/10/07 14:45:07;;;;;;;9.40;3.20;;;;;;;;;;4935295;28;20451;-74
2023/10/07 14:47:33;;;;;;;11.13;3.28;;;;;;;;;;4941845;28;20149;-75
2023/10/07 14:50:00;;;;;;;8.55;3.38;;;;;;;;;;4934060;28;20508;-75
2023/10/07 14:52:27;;;;;;;7.88;3.13;;;;;;;;;;4940084;28;20366;-74
2023/10/07 14:54:54;;;;;;;8.90;3.40;;;;;;;;;;4941029;28;20042;-74
2023/10/07 14:57:21;;;;;;;9.13;3.33;;;;;;;;;;4941798;28;20034;-75
2023/10/07 14:59:47;;;;;;;7.82;2.88;;;;;;;;;;4938700;28;20449;-73
2023/10/07 15:02:14;;;;;;;8.23;2.90;;;;;;;;;;4937995;28;20043;-73
2023/10/07 15:04:41;;;;;;;8.88;2.92;;;;;;;;;;4936683;28;20873;-73
2023/10/07 15:07:08;;;;;;;10.15;3.35;;;;;;;;;;4936353;28;20401;-73
2023/10/07 15:09:37;;;;;;;9.98;3.33;;;;;;;;;;4938638;28;20596;-73
2023/10/07 15:12:07;;;;;;;9.13;3.50;;;;;;;;;;4937499;28;20031;-73
2023/10/07 15:14:34;;;;;;;9.98;3.45;;;;;;;;;;4942108;28;20034;-73
2023/10/07 15:17:01;;;;;;;9.73;2.85;;;;;;;;;;4936502;28;20031;-73
2023/10/07 15:19:27;;;;;;;9.77;3.50;;;;;;;;;;4940052;28;20119;-73
2023/10/07 15:21:53;;;;;;;8.88;3.28;;;;;;;;;;4936673;28;20054;-74
2023/10/07 15:24:20;;;;;;;12.52;3.20;;;;;;;;;;4939209;28;20391;-74
2023/10/07 15:26:47;;;;;;;8.90;3.22;;;;;;;;;;4940403;28;20104;-74
2023/10/07 15:29:14;;;;;;;10.15;2.90;;;;;;;;;;4936751;28;20065;-74
2023/10/07 15:31:41;;;;;;;7.93;3.03;;;;;;;;;;4944502;28;20026;-74
2023/10/07 15:34:08;;;;;;;7.70;3.30;;;;;;;;;;4936244;28;20118;-74
2023/10/07 15:36:38;;;;;;;10.27;3.30;;;;;;;;;;4940088;28;20026;-74
2023/10/07 15:39:05;;;;;;;7.93;2.60;;;;;;;;;;4936639;28;20575;-73
2023/10/07 15:41:31;;;;;;;9.40;2.70;;;;;;;;;;4941747;28;20026;-73
2023/10/07 15:43:57;;;;;;;8.20;2.90;;;;;;;;;;4942028;28;20205;-72